Exmouth, United Kingdom
Current Conditions -  °F | °C
As of 10:20 AM on Saturday 25 Oct 2014 (Local Time) from EGTE Reporting Station
Broken Clouds Broken Clouds  
Wind Chill: 54°   Ceiling: 4500
Heat Index: 54°   Visibility: 6mi
Dew Point: 46°   Wind: 7mph
Humidity: 77%   Direction: 220°SW
Pressure: 30.09"   Gusts: NA
Location:  50.62°N, 3.41°W
Report Text: EGTE 250920Z 22006KT 9999 FEW010 BKN045 12/08 Q1019
Loading
Personal Weather Stations






























Interactive Weather Map
Tropical Storm Tracking
New forecast layout! Learn more

10-Day Weather Forecast

Advertisements
Track Severe Weather on mobile